Logo Brunsvigian Airlines

Die löwenstarke Airline aus Braunschweig

Charts auf der Seite von VATEUD

EHBK 042325Z AUTO 22005KT 9999 FEW043 BKN048 16/14 Q1018

flugnummerleerzeichenankunftleerzeichenplanmaessig
ABS503__PADERBORN________14doppelpunkt00

flugnummerleerzeichenankunftleerzeichenplanmaessig
ABS502__PADERBORN________10doppelpunkt00

In den Niederlanden nahe der deutschen Grenze gelegen erreichen Sie über den Flughafen Maastricht-Aachen die gesamte Grenzregion.

Kontakt   Impressum

Valid HTML 4.01 Transitional CSS ist valide!